createdAt,value
2023-04-15T00:01:28.550Z,100783.19
2023-04-15T00:04:14.725Z,100785.28
2023-04-15T00:07:02.865Z,100790.59
2023-04-15T00:09:49.330Z,100788.22
2023-04-15T00:12:35.532Z,100787.41
2023-04-15T00:15:22.377Z,100783.69
2023-04-15T00:18:09.721Z,100776.59
2023-04-15T00:20:56.143Z,100782.22
2023-04-15T00:23:42.308Z,100775.88
2023-04-15T00:26:29.095Z,100770.59
2023-04-15T00:29:16.457Z,100779.19
2023-04-15T00:32:02.694Z,100771.94
2023-04-15T00:34:50.942Z,100775.47
2023-04-15T00:37:37.529Z,100781.84
2023-04-15T00:40:26.144Z,100778.84
2023-04-15T00:43:12.287Z,100778.94
2023-04-15T00:46:00.594Z,100781.41
2023-04-15T00:48:47.756Z,100783.28
2023-04-15T00:51:36.782Z,100778.41
2023-04-15T00:54:23.280Z,100782.00
2023-04-15T00:57:09.641Z,100782.06
2023-04-15T00:59:57.169Z,100781.44
2023-04-15T01:02:43.512Z,100778.59
2023-04-15T01:05:31.180Z,100775.91
2023-04-15T01:08:18.693Z,100774.22
2023-04-15T01:11:05.310Z,100778.75
2023-04-15T01:13:52.737Z,100775.34
2023-04-15T01:16:41.024Z,100776.03
2023-04-15T01:19:27.288Z,100781.69
2023-04-15T01:22:13.908Z,100776.81
2023-04-15T01:25:08.086Z,100777.94
2023-04-15T01:27:55.959Z,100776.91
2023-04-15T01:30:42.082Z,100781.28
2023-04-15T01:33:28.719Z,100775.94
2023-04-15T01:36:15.121Z,100776.44
2023-04-15T01:39:01.908Z,100768.84
2023-04-15T01:41:48.574Z,100778.97
2023-04-15T01:44:37.332Z,100773.19
2023-04-15T01:47:23.755Z,100770.59
2023-04-15T01:50:10.677Z,100780.69
2023-04-15T01:52:57.202Z,100778.34
2023-04-15T01:55:44.255Z,100774.81
2023-04-15T01:58:31.366Z,100775.81
2023-04-15T02:01:20.885Z,100776.66
2023-04-15T02:04:08.047Z,100777.66
2023-04-15T02:06:54.753Z,100777.50
2023-04-15T02:09:41.329Z,100771.97
2023-04-15T02:12:28.022Z,100777.19
2023-04-15T02:15:14.374Z,100772.34
2023-04-15T02:18:02.848Z,100788.69
2023-04-15T02:20:49.351Z,100780.94
2023-04-15T02:23:35.893Z,100788.03
2023-04-15T02:26:23.015Z,100787.00
2023-04-15T02:29:09.004Z,100788.03
2023-04-15T02:31:55.451Z,100797.75
2023-04-15T02:34:43.577Z,100796.56
2023-04-15T02:37:31.057Z,100799.13
2023-04-15T02:40:18.672Z,100803.47
2023-04-15T02:43:06.863Z,100807.50
2023-04-15T02:45:53.874Z,100808.72
2023-04-15T02:48:40.689Z,100810.91
2023-04-15T02:51:32.265Z,100820.50
2023-04-15T02:54:18.777Z,100817.13
2023-04-15T02:57:06.765Z,100814.13
2023-04-15T02:59:53.280Z,100821.03
2023-04-15T03:02:42.989Z,100820.88
2023-04-15T03:05:29.279Z,100820.69
2023-04-15T03:08:17.738Z,100820.84
2023-04-15T03:11:03.760Z,100816.97
2023-04-15T03:13:50.587Z,100823.53
2023-04-15T03:16:46.985Z,100823.63
2023-04-15T03:19:36.097Z,100822.38
2023-04-15T03:22:22.442Z,100832.38
2023-04-15T03:25:10.873Z,100831.06
2023-04-15T03:27:58.277Z,100840.03
2023-04-15T03:30:44.460Z,100834.31
2023-04-15T03:33:31.064Z,100840.75
2023-04-15T03:36:17.799Z,100839.56
2023-04-15T03:39:04.321Z,100837.34
2023-04-15T03:41:51.862Z,100843.47
2023-04-15T03:44:38.390Z,100842.63
2023-04-15T03:47:24.776Z,100856.25
2023-04-15T03:50:11.640Z,100853.03
2023-04-15T03:52:57.747Z,100853.03
2023-04-15T03:55:44.728Z,100862.94
2023-04-15T03:58:32.337Z,100859.53
2023-04-15T04:01:18.420Z,100871.91
2023-04-15T04:04:04.929Z,100867.69
2023-04-15T04:06:51.501Z,100872.56
2023-04-15T04:09:39.133Z,100869.28
2023-04-15T04:12:25.423Z,100869.50
2023-04-15T04:15:13.182Z,100877.66
2023-04-15T04:17:59.249Z,100871.59
2023-04-15T04:20:45.765Z,100867.38
2023-04-15T04:23:32.057Z,100876.97
2023-04-15T04:26:18.361Z,100885.25
2023-04-15T04:29:04.675Z,100882.38
2023-04-15T04:31:52.240Z,100886.56
2023-04-15T04:34:42.680Z,100887.59
2023-04-15T04:37:28.667Z,100896.03
2023-04-15T04:40:14.838Z,100899.56
2023-04-15T04:43:01.602Z,100899.56
2023-04-15T04:45:47.990Z,100904.94
2023-04-15T04:48:35.812Z,100910.69
2023-04-15T04:51:22.181Z,100914.25
2023-04-15T04:54:08.593Z,100912.53
2023-04-15T04:56:55.094Z,100927.00
2023-04-15T04:59:41.138Z,100933.13
2023-04-15T05:02:28.246Z,100929.91
2023-04-15T05:05:16.198Z,100941.34
2023-04-15T05:08:02.466Z,100940.66
2023-04-15T05:10:48.543Z,100946.09
2023-04-15T05:13:34.765Z,100949.13
2023-04-15T05:16:21.021Z,100955.19
2023-04-15T05:19:07.716Z,100960.06
2023-04-15T05:21:55.465Z,100962.78
2023-04-15T05:24:41.828Z,100966.66
2023-04-15T05:27:28.032Z,100978.47
2023-04-15T05:30:14.336Z,100983.34
2023-04-15T05:33:00.987Z,100977.97
2023-04-15T05:35:47.232Z,100989.78
2023-04-15T05:38:34.693Z,100995.31
2023-04-15T05:41:20.891Z,100991.59
2023-04-15T05:44:07.351Z,100999.38
2023-04-15T05:46:53.893Z,100996.00
2023-04-15T05:49:40.172Z,101005.97
2023-04-15T05:52:26.608Z,101006.97
2023-04-15T05:55:15.193Z,101023.66
2023-04-15T05:58:01.150Z,101020.28
2023-04-15T06:00:47.363Z,101028.19
2023-04-15T06:03:34.429Z,101031.41
2023-04-15T06:06:21.064Z,101038.84
2023-04-15T06:09:07.416Z,101039.00
2023-04-15T06:11:56.063Z,101054.19
2023-04-15T06:14:42.667Z,101049.81
2023-04-15T06:17:28.903Z,101059.91
2023-04-15T06:20:16.031Z,101059.56
2023-04-15T06:23:02.281Z,101066.16
2023-04-15T06:25:48.668Z,101063.09
2023-04-15T06:28:36.367Z,101067.28
2023-04-15T06:31:22.877Z,101071.53
2023-04-15T06:34:09.062Z,101077.06
2023-04-15T06:36:55.949Z,101078.28
2023-04-15T06:39:42.720Z,101080.63
2023-04-15T06:42:29.107Z,101087.41
2023-04-15T06:45:17.126Z,101092.03
2023-04-15T06:48:03.542Z,101110.75
2023-04-15T06:50:50.296Z,101109.56
2023-04-15T06:53:41.018Z,101119.38
2023-04-15T06:56:27.498Z,101123.44
2023-04-15T06:59:14.171Z,101125.44
2023-04-15T07:02:06.756Z,101133.75
2023-04-15T07:04:52.990Z,101134.88
2023-04-15T07:07:39.408Z,101143.59
2023-04-15T07:10:26.076Z,101143.06
2023-04-15T07:13:12.864Z,101148.03
2023-04-15T07:15:59.049Z,101152.19
2023-04-15T07:18:46.741Z,101162.41
2023-04-15T07:21:33.439Z,101154.47
2023-04-15T07:24:20.754Z,101170.28
2023-04-15T07:27:07.471Z,101174.00
2023-04-15T07:29:53.674Z,101181.78
2023-04-15T07:32:40.106Z,101189.81
2023-04-15T07:35:29.250Z,101197.81
2023-04-15T07:38:15.525Z,101201.44
2023-04-15T07:41:01.669Z,101214.47
2023-04-15T07:43:48.364Z,101214.25
2023-04-15T07:46:34.639Z,101217.00
2023-04-15T07:49:21.488Z,101226.91
2023-04-15T07:52:09.283Z,101230.31
2023-04-15T07:54:55.635Z,101232.41
2023-04-15T07:57:41.945Z,101242.75
2023-04-15T08:00:28.459Z,101239.59
2023-04-15T08:03:15.571Z,101244.28
2023-04-15T08:06:02.420Z,101238.19
2023-04-15T08:08:50.373Z,101248.78
2023-04-15T08:11:37.477Z,101256.13
2023-04-15T08:14:25.377Z,101258.03
2023-04-15T08:17:11.506Z,101257.41
2023-04-15T08:19:57.925Z,101264.22
2023-04-15T08:22:43.986Z,101272.00
2023-04-15T08:25:31.676Z,101275.38
2023-04-15T08:28:18.092Z,101277.50
2023-04-15T08:31:04.476Z,101285.44
2023-04-15T08:33:53.451Z,101293.25
2023-04-15T08:36:39.808Z,101292.47
2023-04-15T08:39:26.350Z,101298.69
2023-04-15T08:42:18.656Z,101297.56
2023-04-15T08:45:06.331Z,101300.97
2023-04-15T08:47:56.935Z,101316.31
2023-04-15T08:50:43.762Z,101317.00
2023-04-15T08:53:31.364Z,101320.09
2023-04-15T08:56:18.210Z,101325.47
2023-04-15T08:59:06.415Z,101323.88
2023-04-15T09:01:54.128Z,101332.19
2023-04-15T09:04:40.464Z,101335.13
2023-04-15T09:07:27.019Z,101337.94
2023-04-15T09:10:14.079Z,101349.06
2023-04-15T09:13:00.527Z,101351.59
2023-04-15T09:15:48.356Z,101344.84
2023-04-15T09:18:36.087Z,101350.38
2023-04-15T09:21:23.508Z,101362.88
2023-04-15T09:24:09.841Z,101367.53
2023-04-15T09:26:59.420Z,101365.75
2023-04-15T09:29:45.945Z,101368.94
2023-04-15T09:32:33.374Z,101379.09
2023-04-15T09:35:19.988Z,101388.34
2023-04-15T09:38:09.679Z,101379.78
2023-04-15T09:40:56.503Z,101384.66
2023-04-15T09:43:43.068Z,101388.00
2023-04-15T09:46:43.157Z,101390.66
2023-04-15T09:49:30.995Z,101394.47
2023-04-15T09:52:17.740Z,101400.97
2023-04-15T09:55:04.320Z,101404.47
2023-04-15T09:57:50.483Z,101395.84
2023-04-15T10:00:38.661Z,101404.25
2023-04-15T10:03:27.430Z,101401.13
2023-04-15T10:06:16.355Z,101403.09
2023-04-15T10:09:03.180Z,101406.94
2023-04-15T10:11:51.410Z,101405.38
2023-04-15T10:14:39.543Z,101414.13
2023-04-15T10:17:31.195Z,101418.59
2023-04-15T10:20:20.518Z,101419.19
2023-04-15T10:23:10.416Z,101414.16
2023-04-15T10:25:59.705Z,101427.50
2023-04-15T10:28:47.185Z,101416.19
2023-04-15T10:31:33.979Z,101432.81
2023-04-15T10:34:20.540Z,101431.69
2023-04-15T10:37:10.953Z,101424.53
2023-04-15T10:39:58.680Z,101425.59
2023-04-15T10:42:45.183Z,101433.19
2023-04-15T10:45:34.773Z,101430.88
2023-04-15T10:48:21.180Z,101433.78
2023-04-15T10:51:07.790Z,101432.75
2023-04-15T10:53:58.048Z,101432.13
2023-04-15T10:56:46.612Z,101447.25
2023-04-15T10:59:34.011Z,101441.19
2023-04-15T11:02:20.100Z,101440.34
2023-04-15T11:05:07.323Z,101442.75
2023-04-15T11:07:56.061Z,101450.63
2023-04-15T11:10:56.188Z,101452.53
2023-04-15T11:13:50.830Z,101450.19
2023-04-15T11:16:44.925Z,101452.69
2023-04-15T11:19:37.681Z,101456.47
2023-04-15T11:22:24.858Z,101451.88
2023-04-15T11:25:11.422Z,101459.44
2023-04-15T11:27:58.500Z,101456.84
2023-04-15T11:30:46.573Z,101460.53
2023-04-15T11:33:33.176Z,101462.38
2023-04-15T11:36:20.009Z,101473.09
2023-04-15T11:39:08.676Z,101471.66
2023-04-15T11:41:55.376Z,101485.09
2023-04-15T11:44:41.521Z,101476.88
2023-04-15T11:47:29.107Z,101483.53
2023-04-15T11:50:16.888Z,101492.34
2023-04-15T11:53:06.892Z,101494.31
2023-04-15T11:55:57.184Z,101499.56
2023-04-15T11:58:44.661Z,101507.75
2023-04-15T12:01:35.075Z,101506.22
2023-04-15T12:04:25.395Z,101500.63
2023-04-15T12:07:12.777Z,101494.94
2023-04-15T12:09:59.857Z,101505.56
2023-04-15T12:12:51.452Z,101503.41
2023-04-15T12:15:39.806Z,101508.41
2023-04-15T12:18:26.611Z,101514.94
2023-04-15T12:21:15.389Z,101516.44
2023-04-15T12:24:04.819Z,101517.06
2023-04-15T12:26:52.953Z,101518.91
2023-04-15T12:29:41.682Z,101528.94
2023-04-15T12:32:28.231Z,101523.56
2023-04-15T12:35:14.546Z,101530.47
2023-04-15T12:38:02.049Z,101544.09
2023-04-15T12:40:48.466Z,101553.00
2023-04-15T12:43:34.983Z,101551.03
2023-04-15T12:46:21.681Z,101548.13
2023-04-15T12:49:08.240Z,101547.06
2023-04-15T12:51:56.166Z,101563.03
2023-04-15T12:54:43.825Z,101566.25
2023-04-15T12:57:33.062Z,101564.34
2023-04-15T13:00:19.583Z,101575.66
2023-04-15T13:03:07.210Z,101573.94
2023-04-15T13:05:57.773Z,101586.25
2023-04-15T13:08:57.505Z,101579.78
2023-04-15T13:11:50.978Z,101567.94
2023-04-15T13:14:37.394Z,101570.59
2023-04-15T13:17:23.476Z,101581.63
2023-04-15T13:20:10.723Z,101589.69
2023-04-15T13:23:01.397Z,101600.53
2023-04-15T13:25:47.874Z,101604.78
2023-04-15T13:28:37.892Z,101600.66
2023-04-15T13:31:25.530Z,101604.78
2023-04-15T13:34:11.720Z,101610.16
2023-04-15T13:36:57.843Z,101613.72
2023-04-15T13:39:43.948Z,101619.44
2023-04-15T13:42:29.885Z,101626.22
2023-04-15T13:45:20.730Z,101620.38
2023-04-15T13:48:07.399Z,101633.16
2023-04-15T13:50:53.830Z,101622.81
2023-04-15T13:53:40.505Z,101626.19
2023-04-15T13:56:27.248Z,101642.38
2023-04-15T13:59:14.211Z,101630.56
2023-04-15T14:02:02.083Z,101647.31
2023-04-15T14:04:48.765Z,101630.25
2023-04-15T14:07:35.283Z,101649.53
2023-04-15T14:10:21.786Z,101633.97
2023-04-15T14:13:08.354Z,101661.47
2023-04-15T14:15:54.708Z,101661.00
2023-04-15T14:18:42.520Z,101691.16
2023-04-15T14:21:29.943Z,101669.66
2023-04-15T14:24:16.578Z,101679.63
2023-04-15T14:27:03.193Z,101676.50
2023-04-15T14:29:49.634Z,101670.00
2023-04-15T14:32:36.240Z,101686.25
2023-04-15T14:35:24.487Z,101683.09
2023-04-15T14:38:11.520Z,101684.00
2023-04-15T14:40:58.326Z,101693.69
2023-04-15T14:43:44.885Z,101699.13
2023-04-15T14:46:31.299Z,101699.03
2023-04-15T14:49:17.490Z,101712.38
2023-04-15T14:52:05.576Z,101709.31
2023-04-15T14:54:52.897Z,101715.78
2023-04-15T14:57:39.944Z,101704.63
2023-04-15T15:00:25.948Z,101720.38
2023-04-15T15:03:13.893Z,101730.25
2023-04-15T15:06:00.548Z,101716.22
2023-04-15T15:08:48.550Z,101731.72
2023-04-15T15:11:34.923Z,101733.13
2023-04-15T15:14:21.735Z,101735.72
2023-04-15T15:17:08.624Z,101743.03
2023-04-15T15:19:54.824Z,101752.44
2023-04-15T15:22:41.332Z,101752.53
2023-04-15T15:25:29.398Z,101751.34
2023-04-15T15:28:15.801Z,101757.38
2023-04-15T15:31:02.223Z,101751.06
2023-04-15T15:33:48.660Z,101759.81
2023-04-15T15:36:34.693Z,101757.47
2023-04-15T15:39:21.234Z,101756.72
2023-04-15T15:42:08.818Z,101766.59
2023-04-15T15:44:55.148Z,101783.75
2023-04-15T15:47:42.110Z,101777.66
2023-04-15T15:50:28.328Z,101786.34
2023-04-15T15:53:18.004Z,101782.56
2023-04-15T15:56:06.037Z,101786.50
2023-04-15T15:58:53.801Z,101791.03
2023-04-15T16:01:40.166Z,101795.91
2023-04-15T16:04:26.848Z,101788.22
2023-04-15T16:07:14.524Z,101773.44
2023-04-15T16:10:00.894Z,101799.56
2023-04-15T16:12:47.380Z,101800.00
2023-04-15T16:15:35.360Z,101796.84
2023-04-15T16:18:21.989Z,101814.63
2023-04-15T16:21:08.442Z,101819.06
2023-04-15T16:23:54.944Z,101823.34
2023-04-15T16:26:41.536Z,101820.28
2023-04-15T16:29:27.906Z,101824.44
2023-04-15T16:32:16.703Z,101840.06
2023-04-15T16:35:04.169Z,101829.97
2023-04-15T16:37:50.486Z,101838.56
2023-04-15T16:40:38.217Z,101840.56
2023-04-15T16:43:24.311Z,101843.72
2023-04-15T16:46:10.871Z,101844.00
2023-04-15T16:48:58.522Z,101853.19
2023-04-15T16:51:45.015Z,101850.47
2023-04-15T16:54:33.445Z,101855.56
2023-04-15T16:57:19.919Z,101854.19
2023-04-15T17:00:07.602Z,101861.00
2023-04-15T17:02:54.245Z,101836.19
2023-04-15T17:05:42.732Z,101862.34
2023-04-15T17:08:28.996Z,101839.50
2023-04-15T17:11:16.278Z,101850.50
2023-04-15T17:14:03.438Z,101871.03
2023-04-15T17:16:49.813Z,101878.16
2023-04-15T17:19:36.131Z,101883.22
2023-04-15T17:22:24.019Z,101868.28
2023-04-15T17:25:10.751Z,101867.56
2023-04-15T17:27:56.978Z,101884.34
2023-04-15T17:30:43.259Z,101885.13
2023-04-15T17:34:00.200Z,101886.72
2023-04-15T17:41:00.814Z,101904.94
2023-04-15T17:43:47.206Z,101894.84
2023-04-15T17:46:33.614Z,101908.09
2023-04-15T17:49:19.778Z,101902.63
2023-04-15T17:52:06.346Z,101895.81
2023-04-15T17:54:52.804Z,101904.59
2023-04-15T17:57:40.702Z,101902.56
2023-04-15T18:00:26.798Z,101910.50
2023-04-15T18:03:13.302Z,101914.41
2023-04-15T18:06:00.604Z,101912.69
2023-04-15T18:08:47.176Z,101911.63
2023-04-15T18:11:34.189Z,101922.09
2023-04-15T18:14:33.709Z,101925.41
2023-04-15T18:17:21.172Z,101916.19
2023-04-15T18:20:08.613Z,101916.28
2023-04-15T18:22:55.720Z,101928.38
2023-04-15T18:25:43.488Z,101922.06
2023-04-15T18:28:31.169Z,101927.47
2023-04-15T18:31:18.670Z,101925.31
2023-04-15T18:34:07.260Z,101923.38
2023-04-15T19:00:26.695Z,101959.91
2023-04-15T19:11:59.256Z,101970.91
2023-04-15T19:14:45.666Z,101971.75
2023-04-15T19:39:06.121Z,101986.50
2023-04-15T19:41:55.293Z,101987.94
2023-04-15T19:44:42.898Z,101991.91
2023-04-15T19:58:35.362Z,101989.34
2023-04-15T20:01:22.080Z,101988.06
2023-04-15T20:04:08.686Z,101989.16
2023-04-15T20:06:55.647Z,101982.03
2023-04-15T20:09:43.736Z,101981.34
2023-04-15T20:12:50.674Z,101973.69
2023-04-15T20:15:38.353Z,101976.50
2023-04-15T20:18:28.150Z,101965.13
2023-04-15T20:21:14.370Z,101972.16
2023-04-15T20:24:00.452Z,101967.00
2023-04-15T20:26:47.059Z,101967.28
2023-04-15T20:29:33.506Z,101969.44
2023-04-15T20:32:21.395Z,101963.91
2023-04-15T20:35:08.751Z,101964.44
2023-04-15T20:37:55.340Z,101966.88
2023-04-15T20:40:45.641Z,101965.00
2023-04-15T20:43:32.118Z,101970.41
2023-04-15T20:50:43.961Z,101969.19
2023-04-15T20:53:29.941Z,101975.25
2023-04-15T20:56:16.131Z,101976.97
2023-04-15T20:59:02.800Z,101982.44
2023-04-15T21:01:49.264Z,101986.69
2023-04-15T21:04:35.862Z,101977.69
2023-04-15T21:07:23.615Z,101985.22
2023-04-15T21:10:10.590Z,101978.28
2023-04-15T21:12:57.026Z,101977.81
2023-04-15T21:15:43.152Z,101985.59
2023-04-15T21:18:29.318Z,101990.03
2023-04-15T21:21:15.912Z,101982.28
2023-04-15T21:24:03.509Z,101992.78
2023-04-15T21:26:49.639Z,101989.75
2023-04-15T21:29:35.815Z,101994.16
2023-04-15T21:32:22.100Z,102002.56
2023-04-15T21:35:09.376Z,102001.13
2023-04-15T21:37:55.950Z,101997.00
2023-04-15T21:40:43.484Z,102000.72
2023-04-15T21:43:29.961Z,102014.81
2023-04-15T21:46:24.381Z,102002.97
2023-04-15T21:49:11.912Z,102009.47
2023-04-15T21:52:01.122Z,102003.25
2023-04-15T21:54:47.782Z,102008.81
2023-04-15T21:57:35.466Z,102011.06
2023-04-15T22:00:23.012Z,102015.50
2023-04-15T22:03:09.549Z,102010.03
2023-04-15T22:06:00.120Z,102017.94
2023-04-15T22:08:56.292Z,102008.75
2023-04-15T22:11:53.053Z,102016.44
2023-04-15T22:14:40.478Z,102017.59
2023-04-15T22:17:27.542Z,102020.09
2023-04-15T22:20:14.285Z,102014.16
2023-04-15T22:23:00.446Z,102011.22
2023-04-15T22:25:47.521Z,102023.50
2023-04-15T22:28:33.844Z,102017.06
2023-04-15T22:31:21.237Z,102023.94
2023-04-15T22:34:08.497Z,102030.19
2023-04-15T22:36:55.062Z,102034.06
2023-04-15T22:39:41.414Z,102030.97
2023-04-15T22:42:27.771Z,102039.56
2023-04-15T22:45:13.940Z,102044.22
2023-04-15T22:48:02.485Z,102039.66
2023-04-15T22:50:49.284Z,102048.00
2023-04-15T22:53:35.402Z,102043.94
2023-04-15T22:56:21.908Z,102051.09
2023-04-15T22:59:08.293Z,102047.88
2023-04-15T23:01:54.665Z,102049.03
2023-04-15T23:04:42.309Z,102053.53
2023-04-15T23:07:28.815Z,102058.44
2023-04-15T23:10:14.793Z,102066.03
2023-04-15T23:13:01.070Z,102066.50
2023-04-15T23:15:47.388Z,102066.00
2023-04-15T23:18:33.873Z,102072.41
2023-04-15T23:21:22.471Z,102075.28
2023-04-15T23:24:09.993Z,102063.50
2023-04-15T23:26:57.170Z,102066.41
2023-04-15T23:29:43.172Z,102070.84
2023-04-15T23:32:29.503Z,102076.63
2023-04-15T23:35:15.889Z,102068.16
2023-04-15T23:38:03.641Z,102087.03
2023-04-15T23:40:51.851Z,102084.38
2023-04-15T23:43:38.086Z,102090.94
2023-04-15T23:46:24.139Z,102092.22
2023-04-15T23:49:10.534Z,102085.13
2023-04-15T23:51:57.451Z,102088.28
2023-04-15T23:54:44.923Z,102087.22
2023-04-15T23:57:31.037Z,102086.28
